Ten'yo — JBBC — position and weather

sailwx.info

Track history (hours):
 
Tides and Currents Weather Stations Pressure Air Temp Water Temp Dewpoint Dewpoint Depression Visibility Wind Speed Wind Dir Waves Ship Positions

Oceanographic research ship Ten'yo (Japan)

Detailed information on ship capabilities available from University of Delaware's Ocean Information Center.

Last reported at 2017-Aug-08 06:12 UTC. Time now 2017-Aug-16 19:15 UTC.
Position N 35°38' E 139°47'.
Warning: this ship's position is 8 days out of date.

Length 56 m.

Type: Other ship. MMSI: 431100350.

Date/timePositionNaut miles runAvg speedWind from/ knotsBaromVisibWave heightAir tempDewpointWater temp
2017-Aug-08 06:12N 35°38' E 139°47'0 0.0
2017-Aug-08 05:49N 35°38' E 139°47'0 0.0
2017-Aug-08 05:25N 35°38' E 139°47'0 0.0
2017-Aug-07 07:52N 35°38' E 139°47'0 0.1
2017-Aug-07 07:30N 35°38' E 139°47'1 1.4
2017-Aug-07 07:00N 35°38' E 139°46'510.6
2017-Aug-07 06:30N 35°34' E 139°50'3 5.1
2017-Aug-07 06:00N 35°34' E 139°53'0 0.0
2017-Aug-07 05:30N 35°34' E 139°53'0 0.0
2017-Aug-07 04:57N 35°34' E 139°53'0 0.0
2017-Aug-07 04:25N 35°34' E 139°53'0 0.0
2017-Aug-07 03:59N 35°34' E 139°53'0 0.0
2017-Aug-07 03:27N 35°34' E 139°53'0 0.0
2017-Aug-07 03:00N 35°34' E 139°53'0 0.0
2017-Aug-07 02:29N 35°34' E 139°53'0 0.0
2017-Aug-07 01:59N 35°34' E 139°53'0 0.0
2017-Aug-07 01:27N 35°34' E 139°53'3 6.3
2017-Aug-07 01:00N 35°31' E 139°54'510.7
2017-Aug-07 00:30N 35°27' E 139°50'510.6
2017-Aug-07 00:00N 35°23' E 139°46'5 9.6
2017-Aug-06 23:30N 35°18' E 139°45'5 9.9
2017-Aug-06 23:00N 35°13' E 139°47'4 7.9
2017-Aug-06 22:30N 35°10' E 139°47'3 5.7
2017-Aug-06 22:00N 35°07' E 139°46'3 6.6
2017-Aug-06 21:30N 35°04' E 139°45'3 6.4
2017-Aug-06 21:00N 35°01' E 139°44'3 5.9
2017-Aug-06 20:30N 34°58' E 139°44'5 6.4
2017-Aug-06 19:48N 34°54' E 139°47'2 6.2
2017-Aug-06 19:30N 34°53' E 139°49'  
Track history (hours):
 
Tides and Currents Weather Stations Pressure Air Temp Water Temp Dewpoint Dewpoint Depression Visibility Wind Speed Wind Dir Waves Ship Positions

Oceanographic research ship Ten'yo (Japan)

Detailed information on ship capabilities available from University of Delaware's Ocean Information Center.

Last reported at 2017-Aug-08 06:12 UTC. Time now 2017-Aug-16 19:15 UTC.
Position N 35°38' E 139°47'.
Warning: this ship's position is 8 days out of date.

Length 56 m.

Type: Other ship. MMSI: 431100350.

Date/timePositionNaut miles runAvg speedWind from/ knotsBaromVisibWave heightAir tempDewpointWater temp
2017-Aug-08 06:12N 35°38' E 139°47'0 0.0
2017-Aug-08 05:49N 35°38' E 139°47'0 0.0
2017-Aug-08 05:25N 35°38' E 139°47'0 0.0
2017-Aug-07 07:52N 35°38' E 139°47'0 0.1
2017-Aug-07 07:30N 35°38' E 139°47'1 1.4
2017-Aug-07 07:00N 35°38' E 139°46'510.6
2017-Aug-07 06:30N 35°34' E 139°50'3 5.1
2017-Aug-07 06:00N 35°34' E 139°53'0 0.0
2017-Aug-07 05:30N 35°34' E 139°53'0 0.0
2017-Aug-07 04:57N 35°34' E 139°53'0 0.0
2017-Aug-07 04:25N 35°34' E 139°53'0 0.0
2017-Aug-07 03:59N 35°34' E 139°53'0 0.0
2017-Aug-07 03:27N 35°34' E 139°53'0 0.0
2017-Aug-07 03:00N 35°34' E 139°53'0 0.0
2017-Aug-07 02:29N 35°34' E 139°53'0 0.0
2017-Aug-07 01:59N 35°34' E 139°53'0 0.0
2017-Aug-07 01:27N 35°34' E 139°53'3 6.3
2017-Aug-07 01:00N 35°31' E 139°54'510.7
2017-Aug-07 00:30N 35°27' E 139°50'510.6
2017-Aug-07 00:00N 35°23' E 139°46'5 9.6
2017-Aug-06 23:30N 35°18' E 139°45'5 9.9
2017-Aug-06 23:00N 35°13' E 139°47'4 7.9
2017-Aug-06 22:30N 35°10' E 139°47'3 5.7
2017-Aug-06 22:00N 35°07' E 139°46'3 6.6
2017-Aug-06 21:30N 35°04' E 139°45'3 6.4
2017-Aug-06 21:00N 35°01' E 139°44'3 5.9
2017-Aug-06 20:30N 34°58' E 139°44'5 6.4
2017-Aug-06 19:48N 34°54' E 139°47'2 6.2
2017-Aug-06 19:30N 34°53' E 139°49'  

Dump ship's entire track history